Погода Гуажара-Миринна неделю

Рондония, Бразилия

21 - 27 июня
  • 21июня
    Сегодня
    +23°
    +34°
    Небольшая облачность
    ВремяПогодаТемператураВлажностьДавлениеВетер, м/сВероятность осадков
    02:00Ясно и безоблачно+24°C81 %748 мм2.1 м/с5 %
    05:00Практически безоблачно+22°C91 %748 мм1.5 м/с5 %
    08:00Ясно и безоблачно+24°C83 %749 мм0.8 м/с5 %
    11:00Ясно и безоблачно+31°C54 %749 мм1.9 м/с5 %
    14:00Небольшая облачность+33°C42 %747 мм2.4 м/с5 %
    17:00Небольшая облачность+32°C49 %745 мм1.4 м/с5 %
    20:00Облачно с прояснениями+27°C63 %746 мм1.4 м/с5 %
    23:00Небольшая облачность+26°C71 %747 мм1.6 м/с5 %
  • 22июня
    Суббота
    +24°
    +34°
    Практически безоблачно
    ВремяПогодаТемператураВлажностьДавлениеВетер, м/сВероятность осадков
    02:00Практически безоблачно+25°C77 %747 мм1.9 м/с5 %
    05:00Практически безоблачно+24°C80 %747 мм1.7 м/с5 %
    08:00Небольшая облачность+25°C78 %748 мм1.4 м/с5 %
    11:00Облачно с прояснениями+32°C47 %749 мм3.2 м/с5 %
    14:00Практически безоблачно+34°C36 %746 мм3.8 м/с5 %
    17:00Ясно и безоблачно+32°C44 %745 мм1.7 м/с5 %
    20:00Ясно и безоблачно+29°C53 %745 мм2.6 м/с5 %
    23:00Ясно и безоблачно+26°C61 %746 мм2.5 м/с5 %
  • 23июня
    Воскресенье
    +24°
    +34°
    Ясно и безоблачно
    ВремяПогодаТемператураВлажностьДавлениеВетер, м/сВероятность осадков
    02:00Ясно и безоблачно+25°C71 %746 мм2.2 м/с5 %
    05:00Ясно и безоблачно+24°C77 %747 мм2.2 м/с5 %
    08:00Ясно и безоблачно+26°C74 %749 мм1.6 м/с5 %
    11:00Ясно и безоблачно+32°C48 %749 мм3.5 м/с5 %
    14:00Ясно и безоблачно+34°C40 %747 мм3.6 м/с5 %
    17:00Ясно и безоблачно+33°C48 %746 мм1.2 м/с5 %
    20:00Ясно и безоблачно+28°C63 %746 мм2.3 м/с5 %
    23:00Ясно и безоблачно+27°C69 %747 мм2.2 м/с5 %
  • 24июня
    Понедельник
    +22°
    +34°
    Ясно и безоблачно
    ВремяПогодаТемператураВлажностьДавлениеВетер, м/сВероятность осадков
    02:00Ясно и безоблачно+25°C78 %747 мм2.6 м/с5 %
    05:00Ясно и безоблачно+24°C81 %747 мм2.2 м/с5 %
    08:00Ясно и безоблачно+26°C79 %749 мм1.3 м/с5 %
    11:00Ясно и безоблачно+32°C49 %750 мм3.3 м/с5 %
    14:00Ясно и безоблачно+34°C41 %747 мм2.4 м/с5 %
    17:00Ясно и безоблачно+32°C49 %746 мм1.2 м/с5 %
    20:00Ясно и безоблачно+28°C62 %747 мм1.9 м/с5 %
    23:00Ясно и безоблачно+26°C69 %748 мм1.8 м/с5 %
Мы используем cookies
Соглашаюсь